aviador You're here:

LFAT Decoded Metar

LE TOURQUET in FRANCE
Report Time2018-06-25 06:00:00
UTC Time2018-06-25 06:11:59
Flight Rules vfr VFR
Wind340° at 05 kt
W.Decomp.*RWY 32: 4.6 kt HW 1.9 kt RCW
W.Rank340° ranks 22
Current wind is below 340° avg. (8.7)
Visibility9999 m
Phenomena:N/A
Clouds:N/A
Expected CloudBase > 1,200 ft AGL from Temp-Dew spread
CeilingNone
Temp15°C (ISA 0)
Dew Point12°C (82% RH)
AAT13.8°C
QNH1026 hPa
Density Alt-194 ft
Elevation46 ft
Report Wrong Elevation
Raw Report
LFAT 250600Z AUTO 34005KT CAVOK 15/12 Q1026 NOSIG=

Extra information for LFAT:More info

Metar Taf Metar & Taf Last 4 Metars F.Rules Stats Wind Profile Meteogram Temp Stats Airport Information Weather charts Add Link Nearby VenuesMetar ALERT Operation Metar Decoded Social comments

LeTouquet left-side RWY
Le Touquet center RWY
Le Touquet right-side RWY